GVSV

São Pedro Airport

São Pedro, Cape Verde
METAR GVSV 171100Z 05020KT 9999 SCT018 29/21 Q1017 NOSIG
Observed Flight Rules
Oct-17 @ 11:00 UTC (48 minutes ago) Visual Flight Rules
Wind Visibility Clouds
50° at 20 knots 10,000+ meters
  • Scattered at 1,800' AGL
Temperatures Readings
Current 29°C / 84°F
Dewpoint 21°C / 70°F
Humidity 62%
Altimeter 30.03" Hg
Pressure 1017 hPa
Elevation 20
METAR GVSV 171100Z 05020KT 9999 SCT018 29/21 Q1017 NOSIG
Observed Flight Rules
Oct-17 @ 11:00 UTC
(48 minutes ago)
VFR
Wind Visibility
50° at 20 knots 10,000+ meters
Clouds
  • Scattered at 1,800' AGL
Temperature Dewpoint
29°C / 84°F 21°C / 70°F
Humidity Altimeter Pressure
62% 30.03" Hg 1017 hPa